Time;durP1;ratioP1;P1;durP2;ratioP2;P2;SDS_P1;SDS_P2;PMS_P1;PMS_P2;Temp;Humidity;BMP_temperature;BMP_pressure;BME280_temperature;BME280_humidity;BME280_pressure;Samples;Min_cycle;Max_cycle;Signal;HPM_P1;HPM_P2
2023/01/04 00:02:24;;;;;;;12.70;8.08;;;;;;;6.27;91.46;101525.58;2825572;83;21554;-87
2023/01/04 00:06:25;;;;;;;12.47;7.85;;;;;;;6.11;90.07;101520.12;2826577;82;21574;-87
2023/01/04 00:10:27;;;;;;;13.38;9.40;;;;;;;5.99;89.84;101520.60;2778522;83;21004;-87
2023/01/04 00:14:28;;;;;;;18.00;9.23;;;;;;;5.85;89.28;101514.12;2824729;82;21034;-88
2023/01/04 00:18:30;;;;;;;10.85;7.83;;;;;;;5.76;89.33;101514.52;2731453;84;21040;-88
2023/01/04 00:22:34;;;;;;;17.15;11.35;;;;;;;5.66;89.11;101510.53;2821252;82;22292;-88
2023/01/04 00:26:36;;;;;;;13.50;9.20;;;;;;;5.51;88.79;101501.03;2837515;81;21481;-88
2023/01/04 00:30:37;;;;;;;16.42;10.45;;;;;;;5.39;88.90;101499.72;2796767;82;21569;-88
2023/01/04 00:34:38;;;;;;;12.53;8.75;;;;;;;5.34;88.96;101496.90;2802895;82;21538;-87
2023/01/04 00:38:40;;;;;;;14.68;9.50;;;;;;;5.25;88.70;101491.05;2788554;84;21055;-88
2023/01/04 00:42:41;;;;;;;15.40;9.58;;;;;;;5.12;88.79;101493.80;2775172;84;21634;-87
2023/01/04 00:46:43;;;;;;;11.70;7.08;;;;;;;5.02;89.58;101497.27;2798388;82;21066;-87
2023/01/04 00:50:45;;;;;;;12.80;8.43;;;;;;;4.92;90.08;101495.44;2792768;81;21019;-88
2023/01/04 00:54:46;;;;;;;10.60;7.65;;;;;;;4.86;90.04;101492.58;2875393;81;20996;-88
2023/01/04 00:58:47;;;;;;;14.53;8.83;;;;;;;4.83;89.90;101482.59;2878507;81;21042;-87
2023/01/04 01:02:49;;;;;;;13.43;7.37;;;;;;;4.83;89.72;101486.55;2867510;81;21496;-88
2023/01/04 01:06:50;;;;;;;12.07;7.28;;;;;;;4.80;89.91;101491.95;2812381;83;21611;-87
2023/01/04 01:10:53;;;;;;;14.38;7.45;;;;;;;4.78;89.76;101485.88;2892173;80;21644;-87
2023/01/04 01:14:54;;;;;;;9.33;7.03;;;;;;;4.80;89.67;101482.72;2835825;83;21018;-87
2023/01/04 01:18:55;;;;;;;15.98;8.58;;;;;;;4.81;89.46;101482.64;2866646;81;22359;-88
2023/01/04 01:22:56;;;;;;;10.10;8.60;;;;;;;4.79;89.23;101481.84;2866147;81;21531;-88
2023/01/04 01:26:57;;;;;;;11.03;6.75;;;;;;;4.71;89.29;101482.14;2867030;81;21072;-87
2023/01/04 01:30:59;;;;;;;10.28;6.97;;;;;;;4.69;89.57;101480.02;2861454;81;21581;-88
2023/01/04 01:35:00;;;;;;;13.22;6.97;;;;;;;4.70;89.24;101472.52;2866969;81;21049;-88
2023/01/04 01:39:01;;;;;;;15.53;6.50;;;;;;;4.71;89.00;101462.37;2867284;81;21004;-87
2023/01/04 01:43:02;;;;;;;10.28;7.65;;;;;;;4.74;88.78;101457.92;2865085;81;21042;-87
2023/01/04 01:47:03;;;;;;;14.87;9.30;;;;;;;4.74;89.00;101456.13;2816363;82;21039;-87
2023/01/04 01:51:05;;;;;;;14.73;12.75;;;;;;;4.63;88.72;101444.69;2902272;81;21574;-87
2023/01/04 01:55:09;;;;;;;27.02;16.02;;;;;;;4.47;89.13;101447.50;2810150;83;21012;-87
2023/01/04 01:59:12;;;;;;;21.00;11.48;;;;;;;4.39;88.56;101446.46;2809853;83;21577;-87
2023/01/04 02:03:33;;;;;;;12.35;7.92;;;;;;;4.31;88.50;101447.22;2807512;82;21054;-87
2023/01/04 02:07:36;;;;;;;9.23;7.80;;;;;;;4.28;88.59;101442.91;2833346;82;21026;-87
2023/01/04 02:11:37;;;;;;;10.58;7.83;;;;;;;4.28;88.88;101438.95;2836522;82;21788;-87
2023/01/04 02:15:53;;;;;;;18.32;8.15;;;;;;;4.22;88.23;101428.19;2809247;82;21679;-87
2023/01/04 02:20:33;;;;;;;9.37;7.40;;;;;;;4.04;89.33;101423.14;2831643;82;21052;-87
2023/01/04 02:24:49;;;;;;;10.50;7.00;;;;;;;3.97;90.92;101417.71;2836666;82;21200;-87
2023/01/04 02:29:17;;;;;;;10.47;6.00;;;;;;;3.97;91.51;101404.55;2836831;82;21700;-87
2023/01/04 02:33:57;;;;;;;6.80;5.50;;;;;;;4.00;91.91;101415.80;2837099;82;21026;-88
2023/01/04 02:38:10;;;;;;;14.00;7.10;;;;;;;4.06;92.23;101411.26;2823056;83;20988;-87
2023/01/04 02:44:51;;;;;;;10.65;7.87;;;;;;;4.08;92.81;101408.11;2811378;83;21055;-87
2023/01/04 02:46:37;;;;;;;11.18;7.40;;;;;;;4.09;92.88;101401.45;2807520;83;21055;-87
2023/01/04 02:50:57;;;;;;;11.80;7.65;;;;;;;4.08;93.87;101387.04;2782793;84;21103;-87
2023/01/04 02:55:00;;;;;;;13.75;7.85;;;;;;;4.16;94.21;101382.80;2783899;83;21070;-86
2023/01/04 02:59:24;;;;;;;11.25;8.53;;;;;;;4.18;94.46;101368.64;2800469;83;21046;-86
2023/01/04 03:08:08;;;;;;;14.78;7.97;;;;;;;4.29;94.05;101360.34;2787236;83;21060;-87
2023/01/04 03:12:30;;;;;;;10.60;7.97;;;;;;;4.34;94.06;101353.58;2770107;84;21632;-86
2023/01/04 03:16:35;;;;;;;13.38;8.88;;;;;;;4.35;93.67;101339.05;2770415;84;21581;-86
2023/01/04 03:20:36;;;;;;;10.60;8.40;;;;;;;4.32;93.99;101331.71;2839165;82;20974;-87
2023/01/04 03:51:37;;;;;;;12.35;8.25;;;;;;;4.28;93.46;101292.77;2708889;86;21113;-87
2023/01/04 03:55:40;;;;;;;17.17;8.15;;;;;;;4.19;93.46;101286.08;2709362;84;21096;-86
2023/01/04 03:59:47;;;;;;;15.75;10.98;;;;;;;4.17;93.62;101279.18;2706480;85;21100;-87
2023/01/04 04:12:27;;;;;;;13.03;7.40;;;;;;;4.11;93.83;101267.95;2812962;82;21079;-86
2023/01/04 04:16:28;;;;;;;16.55;9.28;;;;;;;4.19;94.12;101273.39;2756104;84;21052;-86
2023/01/04 04:20:29;;;;;;;13.62;8.03;;;;;;;4.24;94.01;101273.62;2785741;83;21040;-84
2023/01/04 04:24:31;;;;;;;19.40;8.50;;;;;;;4.24;94.34;101264.84;2789717;83;21087;-84
2023/01/04 04:28:33;;;;;;;10.82;8.13;;;;;;;4.17;94.43;101253.69;2798447;83;21067;-84
2023/01/04 04:32:34;;;;;;;11.57;7.30;;;;;;;4.18;94.81;101255.40;2775192;83;21043;-84
2023/01/04 04:36:35;;;;;;;9.53;7.97;;;;;;;4.24;94.41;101255.62;2814515;83;21379;-84
2023/01/04 04:44:57;;;;;;;15.70;7.45;;;;;;;4.27;94.21;101243.64;2827516;82;21050;-84
2023/01/04 04:48:59;;;;;;;12.98;9.33;;;;;;;4.29;94.46;101243.12;2834113;82;21081;-84
2023/01/04 04:53:00;;;;;;;14.13;8.55;;;;;;;4.35;93.85;101241.58;2820657;82;21141;-84
2023/01/04 04:57:01;;;;;;;13.03;8.85;;;;;;;4.36;93.54;101227.48;2772049;84;21059;-84
2023/01/04 05:01:03;;;;;;;11.63;7.33;;;;;;;4.34;93.96;101216.16;2809003;82;21029;-84
2023/01/04 05:05:05;;;;;;;14.18;8.80;;;;;;;4.30;94.27;101198.73;2794938;83;21019;-84
2023/01/04 05:09:06;;;;;;;12.88;8.10;;;;;;;4.34;94.33;101199.48;2824091;83;21001;-84
2023/01/04 05:13:11;;;;;;;14.85;8.80;;;;;;;4.28;95.23;101186.09;2821077;82;21035;-84
2023/01/04 05:17:12;;;;;;;13.38;7.28;;;;;;;4.29;95.74;101184.72;2821088;82;21040;-83
2023/01/04 05:21:14;;;;;;;11.48;8.40;;;;;;;4.36;95.51;101185.33;2802971;82;21307;-84
2023/01/04 05:25:15;;;;;;;11.90;9.45;;;;;;;4.39;95.03;101174.66;2828217;82;20970;-84
2023/01/04 05:33:36;;;;;;;14.03;8.73;;;;;;;4.41;94.68;101171.50;2829406;83;21011;-84
2023/01/04 05:37:37;;;;;;;11.25;8.55;;;;;;;4.34;94.75;101162.59;2772686;83;21557;-84
2023/01/04 05:45:58;;;;;;;14.35;9.90;;;;;;;4.38;94.36;101165.05;2814150;82;21040;-83
2023/01/04 05:49:59;;;;;;;16.67;10.28;;;;;;;4.34;94.81;101158.20;2762595;84;21536;-84
2023/01/04 05:54:00;;;;;;;13.25;9.73;;;;;;;4.27;95.19;101153.64;2825414;83;21062;-83
2023/01/04 05:58:01;;;;;;;13.53;10.58;;;;;;;4.34;94.98;101161.28;2788321;83;21582;-83
2023/01/04 06:02:03;;;;;;;23.00;10.48;;;;;;;4.34;94.61;101159.52;2807375;83;21059;-83
2023/01/04 06:06:05;;;;;;;23.50;13.20;;;;;;;4.29;95.01;101154.88;2743562;84;21043;-83
2023/01/04 06:10:09;;;;;;;19.62;13.18;;;;;;;4.31;94.84;101140.34;2742046;85;21634;-83
2023/01/04 06:14:10;;;;;;;19.55;11.10;;;;;;;4.32;95.25;101114.39;2820767;83;21464;-83
2023/01/04 06:18:11;;;;;;;14.07;9.65;;;;;;;4.28;95.42;101114.97;2818775;83;21054;-83
2023/01/04 06:22:13;;;;;;;17.15;10.53;;;;;;;4.23;95.61;101102.02;2741978;84;21067;-83
2023/01/04 06:26:14;;;;;;;13.93;9.40;;;;;;;4.19;96.30;101101.73;2742732;84;21091;-83
2023/01/04 06:30:15;;;;;;;13.25;10.40;;;;;;;4.17;96.37;101085.14;2741890;84;21012;-83
2023/01/04 06:34:17;;;;;;;14.53;8.80;;;;;;;4.17;96.27;101080.35;2742943;84;21039;-83
2023/01/04 06:38:18;;;;;;;19.40;12.07;;;;;;;4.16;96.65;101076.01;2743150;86;21092;-84
2023/01/04 06:46:39;;;;;;;14.00;10.53;;;;;;;4.07;97.23;101066.23;2799965;83;21047;-83
2023/01/04 06:50:42;;;;;;;18.07;11.93;;;;;;;4.11;97.01;101063.87;2743067;84;21059;-83
2023/01/04 06:54:43;;;;;;;15.55;12.78;;;;;;;4.09;97.35;101051.23;2803786;83;21016;-83
2023/01/04 06:58:44;;;;;;;15.88;13.05;;;;;;;4.14;97.28;101044.46;2782989;84;21066;-83
2023/01/04 07:02:45;;;;;;;22.50;14.15;;;;;;;4.09;97.88;101059.12;2778428;84;21039;-83
2023/01/04 07:06:46;;;;;;;25.85;14.25;;;;;;;4.16;97.57;101054.94;2827362;82;21017;-83
2023/01/04 07:10:47;;;;;;;18.48;14.95;;;;;;;4.23;97.33;101052.42;2824917;82;20997;-83
2023/01/04 07:14:48;;;;;;;18.42;13.78;;;;;;;4.20;97.60;101038.08;2827801;82;21065;-83
2023/01/04 07:18:49;;;;;;;18.42;12.15;;;;;;;4.20;97.56;101024.91;2778961;83;21005;-83
2023/01/04 07:22:51;;;;;;;17.55;13.05;;;;;;;4.28;97.51;101024.11;2864882;82;21041;-83
2023/01/04 07:26:52;;;;;;;17.90;11.08;;;;;;;4.30;97.71;101011.72;2798261;83;21063;-83
2023/01/04 07:30:53;;;;;;;14.78;11.63;;;;;;;4.35;97.55;101011.53;2827714;82;20999;-83
2023/01/04 07:34:54;;;;;;;13.25;9.85;;;;;;;4.42;97.33;101010.32;2825215;82;21026;-83
2023/01/04 07:38:58;;;;;;;15.58;10.55;;;;;;;4.45;97.52;101008.02;2803686;83;21019;-83
2023/01/04 07:42:59;;;;;;;18.70;11.95;;;;;;;4.51;97.66;101006.42;2801331;84;21095;-83
2023/01/04 07:47:00;;;;;;;18.05;12.68;;;;;;;4.73;97.34;101009.42;2842797;81;21153;-83
2023/01/04 07:51:02;;;;;;;15.90;11.70;;;;;;;4.87;97.06;101004.35;2844165;82;21041;-83
2023/01/04 07:55:03;;;;;;;18.30;12.55;;;;;;;5.06;96.59;100992.49;2837073;83;21717;-83
2023/01/04 07:59:07;;;;;;;28.62;11.08;;;;;;;5.15;96.44;100996.48;2778895;83;20984;-83
2023/01/04 08:03:08;;;;;;;17.70;11.05;;;;;;;5.37;96.21;100987.52;2832970;83;21050;-83
2023/01/04 08:07:09;;;;;;;20.82;10.45;;;;;;;5.53;96.02;100985.84;2871156;80;21344;-83
2023/01/04 08:11:14;;;;;;;14.35;10.68;;;;;;;5.75;95.85;100972.89;2893668;80;21082;-83
2023/01/04 08:15:16;;;;;;;13.70;9.23;;;;;;;5.86;94.96;100953.38;2840417;82;21219;-84
2023/01/04 08:19:20;;;;;;;17.30;9.85;;;;;;;6.09;94.59;100955.80;2846720;82;21615;-83
2023/01/04 08:23:21;;;;;;;15.05;9.58;;;;;;;6.23;93.93;100951.10;2858125;82;20975;-83
2023/01/04 08:27:22;;;;;;;15.35;10.68;;;;;;;6.32;93.07;100935.23;2860511;81;20977;-83
2023/01/04 08:31:27;;;;;;;11.48;7.97;;;;;;;6.39;92.85;100926.89;2816266;82;20956;-83
2023/01/04 08:35:28;;;;;;;11.03;7.22;;;;;;;6.43;92.20;100916.53;2799592;82;21075;-83
2023/01/04 08:39:34;;;;;;;13.30;7.80;;;;;;;6.55;92.44;100906.23;2835583;82;21129;-83
2023/01/04 08:43:32;;;;;;;9.23;6.17;;;;;;;6.63;92.48;100899.20;2790719;83;21162;-83
2023/01/04 08:47:33;;;;;;;10.98;8.33;;;;;;;6.73;92.04;100883.69;2834280;82;21078;-83
2023/01/04 08:51:34;;;;;;;15.55;7.35;;;;;;;6.78;91.40;100879.84;2840095;82;20990;-83
2023/01/04 08:55:36;;;;;;;10.45;5.67;;;;;;;6.85;91.78;100858.72;2748269;84;21706;-83
2023/01/04 08:59:37;;;;;;;8.75;5.37;;;;;;;6.83;92.04;100838.58;2715330;83;21500;-83
2023/01/04 09:03:38;;;;;;;10.90;6.85;;;;;;;7.05;90.88;100823.65;2828360;84;21562;-83
2023/01/04 09:07:39;;;;;;;9.13;6.05;;;;;;;7.16;90.64;100807.14;2782409;84;21037;-83
2023/01/04 09:11:40;;;;;;;7.22;5.05;;;;;;;7.26;89.35;100804.80;2826447;82;20961;-83
2023/01/04 09:15:41;;;;;;;7.15;5.80;;;;;;;7.37;89.08;100803.70;2803122;82;21063;-83
2023/01/04 09:19:42;;;;;;;7.72;5.72;;;;;;;7.63;88.55;100809.66;2779154;83;21071;-83
2023/01/04 09:23:44;;;;;;;6.28;4.83;;;;;;;7.74;88.69;100807.21;2827097;84;21026;-83
2023/01/04 09:27:45;;;;;;;10.05;7.00;;;;;;;7.89;88.36;100802.75;2776928;84;21150;-83
2023/01/04 09:31:47;;;;;;;7.00;5.47;;;;;;;7.96;88.03;100787.33;2803563;82;20962;-83
2023/01/04 09:35:48;;;;;;;10.85;6.80;;;;;;;8.06;87.09;100789.79;2826446;84;20974;-83
2023/01/04 09:39:49;;;;;;;7.10;4.90;;;;;;;8.19;86.36;100779.72;2825805;82;20990;-83
2023/01/04 09:43:58;;;;;;;6.78;4.20;;;;;;;8.32;85.97;100774.47;2825328;84;20993;-83
2023/01/04 09:48:08;;;;;;;6.30;4.42;;;;;;;8.32;85.29;100762.08;2826796;82;21017;-83
2023/01/04 09:52:20;;;;;;;7.45;3.65;;;;;;;8.41;84.46;100744.73;2819786;82;21029;-83
2023/01/04 09:56:29;;;;;;;4.60;4.20;;;;;;;8.47;83.57;100728.41;2740263;85;21074;-83
2023/01/04 10:00:41;;;;;;;5.30;4.22;;;;;;;8.65;83.91;100706.95;2714706;85;21073;-83
2023/01/04 10:04:49;;;;;;;5.78;4.50;;;;;;;8.77;83.26;100703.95;2689774;87;21097;-83
2023/01/04 10:08:51;;;;;;;7.30;3.95;;;;;;;8.93;82.01;100697.98;2722377;86;21020;-83
2023/01/04 10:13:24;;;;;;;8.03;5.37;;;;;;;9.09;82.11;100695.11;2734115;85;21435;-84
2023/01/04 10:17:55;;;;;;;4.75;2.62;;;;;;;9.11;82.49;100674.62;2780259;84;21072;-84
2023/01/04 10:22:08;;;;;;;4.08;3.20;;;;;;;9.13;82.25;100666.56;2721260;85;22362;-84
2023/01/04 10:26:14;;;;;;;8.55;4.12;;;;;;;9.10;82.10;100659.65;2728098;85;21042;-84
2023/01/04 10:30:39;;;;;;;4.33;3.77;;;;;;;9.18;82.31;100657.79;2756542;84;21058;-84
2023/01/04 10:34:46;;;;;;;5.30;3.77;;;;;;;9.21;81.59;100645.62;2812692;82;21014;-84
2023/01/04 10:39:01;;;;;;;6.67;4.75;;;;;;;9.25;80.94;100623.23;2794640;83;21050;-84
2023/01/04 10:43:11;;;;;;;6.90;3.77;;;;;;;9.18;80.53;100619.80;2847461;82;21049;-84
2023/01/04 10:47:43;;;;;;;9.55;3.15;;;;;;;9.11;80.66;100609.59;2837903;82;21604;-84
2023/01/04 10:51:55;;;;;;;5.35;4.20;;;;;;;9.05;81.02;100599.92;2838751;81;21023;-84
2023/01/04 10:56:11;;;;;;;6.90;4.28;;;;;;;8.99;81.64;100583.45;2829852;82;21071;-84
2023/01/04 11:00:20;;;;;;;5.40;3.62;;;;;;;8.97;80.76;100566.80;2784096;84;21011;-84
2023/01/04 11:04:45;;;;;;;5.37;3.87;;;;;;;8.99;80.50;100550.28;2807410;83;21011;-84
2023/01/04 11:09:01;;;;;;;5.45;3.77;;;;;;;9.00;81.23;100532.08;2797288;83;21079;-84
2023/01/04 11:13:03;;;;;;;4.65;3.98;;;;;;;9.00;81.29;100526.77;2824456;82;21063;-84
2023/01/04 11:17:08;;;;;;;6.22;3.55;;;;;;;9.01;81.75;100522.33;2793231;83;21126;-84
2023/01/04 11:21:13;;;;;;;3.90;2.95;;;;;;;9.06;81.39;100518.86;2846700;80;21074;-84
2023/01/04 11:25:18;;;;;;;4.05;3.40;;;;;;;9.09;81.25;100513.81;2886775;82;21015;-84
2023/01/04 11:29:59;;;;;;;4.53;3.37;;;;;;;9.09;83.02;100503.20;2892438;80;21539;-84
2023/01/04 11:34:02;;;;;;;9.10;5.53;;;;;;;9.02;83.66;100496.62;2882893;81;21051;-84
2023/01/04 11:38:15;;;;;;;4.62;3.72;;;;;;;8.93;85.22;100477.77;2924937;80;21056;-84
2023/01/04 11:42:21;;;;;;;5.00;4.50;;;;;;;8.83;85.89;100464.78;2820174;83;21665;-84
2023/01/04 11:46:23;;;;;;;5.70;3.95;;;;;;;8.65;87.61;100445.28;2780973;84;21051;-84
2023/01/04 11:50:44;;;;;;;7.97;5.33;;;;;;;8.58;87.29;100442.67;2824563;83;20996;-84
2023/01/04 11:54:46;;;;;;;5.67;4.62;;;;;;;8.43;87.32;100426.86;2816560;82;21584;-84
2023/01/04 11:59:12;;;;;;;5.30;4.80;;;;;;;8.47;86.60;100413.41;2840472;82;21008;-84
2023/01/04 12:03:17;;;;;;;7.37;5.60;;;;;;;8.51;85.71;100391.88;2852245;81;21887;-84
2023/01/04 12:07:30;;;;;;;8.28;5.20;;;;;;;8.58;85.25;100393.63;2895351;80;20967;-84
2023/01/04 12:11:35;;;;;;;6.90;4.87;;;;;;;8.57;84.86;100383.97;2817317;83;21026;-84
2023/01/04 12:16:08;;;;;;;9.20;5.83;;;;;;;8.73;85.15;100400.94;2839302;83;21022;-83
2023/01/04 12:20:14;;;;;;;8.05;4.75;;;;;;;8.67;84.37;100412.00;2790249;84;21004;-83
2023/01/04 12:24:23;;;;;;;7.08;5.45;;;;;;;8.69;85.00;100387.08;2835243;83;21023;-84
2023/01/04 12:28:35;;;;;;;4.47;4.08;;;;;;;8.65;85.91;100392.24;2837052;83;21597;-84
2023/01/04 12:32:39;;;;;;;5.70;4.15;;;;;;;8.61;86.49;100379.30;2773722;83;21095;-83
2023/01/04 12:36:51;;;;;;;6.58;3.58;;;;;;;8.55;86.59;100369.52;2794625;83;21598;-83
2023/01/04 12:40:53;;;;;;;5.67;3.80;;;;;;;8.57;87.19;100351.69;2834907;83;21066;-84
2023/01/04 12:44:57;;;;;;;4.72;3.80;;;;;;;8.58;87.75;100348.55;2809814;82;21483;-83
2023/01/04 12:49:04;;;;;;;6.55;3.37;;;;;;;8.61;87.39;100340.36;2833076;83;21007;-84
2023/01/04 12:53:11;;;;;;;5.83;5.00;;;;;;;8.60;87.79;100320.11;2789827;84;21177;-84
2023/01/04 12:57:23;;;;;;;6.03;5.10;;;;;;;8.57;90.44;100315.03;2795664;83;21583;-84
2023/01/04 13:01:28;;;;;;;8.00;6.97;;;;;;;8.54;91.96;100302.84;2829198;82;21039;-84
2023/01/04 13:05:35;;;;;;;6.47;5.03;;;;;;;8.57;92.28;100288.06;2773519;85;21019;-84
2023/01/04 13:09:39;;;;;;;;;;;;;;;8.57;92.54;100274.80;2799112;83;21074;-84
2023/01/04 13:13:58;;;;;;;6.72;3.62;;;;;;;8.63;92.16;100269.99;2745972;85;20428;-85
2023/01/04 13:17:59;;;;;;;5.15;2.45;;;;;;;8.67;91.92;100289.55;2795826;83;21586;-85
2023/01/04 13:22:00;;;;;;;2.83;2.30;;;;;;;8.76;92.53;100293.33;2755116;85;21507;-84
2023/01/04 13:26:47;;;;;;;3.77;1.90;;;;;;;8.84;93.31;100291.41;2756222;85;21606;-85
2023/01/04 13:30:49;;;;;;;5.22;2.50;;;;;;;8.87;93.87;100279.27;2735241;85;21119;-84
2023/01/04 13:35:00;;;;;;;7.30;4.20;;;;;;;8.83;93.53;100280.43;2801879;83;21513;-84
2023/01/04 13:39:06;;;;;;;6.20;3.90;;;;;;;8.79;93.83;100276.31;2791715;83;21582;-84
2023/01/04 13:43:57;;;;;;;6.00;4.35;;;;;;;8.74;92.71;100273.17;2785683;83;21053;-84
2023/01/04 13:48:06;;;;;;;6.30;5.58;;;;;;;8.69;93.80;100255.80;2771025;84;21034;-85
2023/01/04 13:52:23;;;;;;;6.75;4.80;;;;;;;8.63;95.64;100250.94;2779794;84;21606;-84
2023/01/04 13:56:28;;;;;;;3.70;3.05;;;;;;;8.57;95.41;100237.68;2814906;82;21425;-84
2023/01/04 14:00:38;;;;;;;3.92;1.95;;;;;;;8.58;96.19;100234.53;2802342;82;29432;-85
2023/01/04 14:04:42;;;;;;;7.42;2.52;;;;;;;8.54;94.92;100241.86;2830538;82;21518;-85
2023/01/04 14:09:12;;;;;;;3.22;2.75;;;;;;;8.59;95.36;100237.55;2825473;82;21047;-85
2023/01/04 14:13:19;;;;;;;3.65;2.33;;;;;;;8.60;96.09;100237.91;2834562;81;21039;-85
2023/01/04 14:17:49;;;;;;;3.35;2.90;;;;;;;8.53;97.02;100228.23;2838836;82;21512;-85
2023/01/04 14:21:51;;;;;;;3.92;2.90;;;;;;;8.45;97.78;100225.29;2833410;82;21724;-84
2023/01/04 14:25:55;;;;;;;2.20;1.65;;;;;;;8.41;98.04;100218.03;2821267;82;21055;-84
2023/01/04 14:29:56;;;;;;;2.08;1.12;;;;;;;8.37;97.60;100208.62;2776132;84;21043;-84
2023/01/04 14:33:58;;;;;;;2.02;1.72;;;;;;;8.40;97.43;100201.77;2746949;84;21109;-84
2023/01/04 14:38:07;;;;;;;4.65;2.30;;;;;;;8.42;96.88;100193.22;2744227;84;21077;-84
2023/01/04 14:42:24;;;;;;;4.10;2.22;;;;;;;8.41;97.13;100184.07;2760155;84;21121;-84
2023/01/04 14:46:29;;;;;;;3.95;2.15;;;;;;;8.33;96.97;100178.48;2744402;84;22075;-84
2023/01/04 14:50:30;;;;;;;3.45;2.35;;;;;;;8.22;96.08;100173.51;2770843;84;21678;-84
2023/01/04 14:54:33;;;;;;;2.67;2.15;;;;;;;8.22;95.80;100162.91;2777162;82;21558;-85
2023/01/04 14:58:34;;;;;;;4.47;3.22;;;;;;;8.15;95.92;100164.30;2819637;82;21038;-85
2023/01/04 15:02:36;;;;;;;4.50;2.77;;;;;;;8.12;95.43;100160.09;2814220;82;21475;-84
2023/01/04 15:06:48;;;;;;;5.83;3.47;;;;;;;8.11;95.45;100151.78;2769424;82;21038;-85
2023/01/04 15:10:49;;;;;;;6.15;3.67;;;;;;;8.14;95.49;100139.63;2806185;82;21327;-85
2023/01/04 15:14:50;;;;;;;6.53;3.80;;;;;;;8.13;95.73;100139.27;2811528;82;20983;-84
2023/01/04 15:18:51;;;;;;;7.67;5.45;;;;;;;8.15;95.93;100136.02;2811953;82;20984;-84
2023/01/04 15:22:53;;;;;;;9.00;6.95;;;;;;;8.17;95.41;100125.78;2817284;82;21605;-84
2023/01/04 15:26:54;;;;;;;10.58;4.55;;;;;;;8.22;95.45;100119.66;2814228;82;21029;-84
2023/01/04 15:30:55;;;;;;;10.58;5.58;;;;;;;8.15;96.16;100113.50;2801724;82;21088;-84
2023/01/04 15:34:56;;;;;;;5.95;3.80;;;;;;;8.18;95.60;100111.58;2779246;83;21597;-84
2023/01/04 15:38:57;;;;;;;9.18;5.03;;;;;;;8.21;96.09;100116.17;2804866;82;21511;-84
2023/01/04 15:42:58;;;;;;;6.87;4.03;;;;;;;8.24;95.53;100117.73;2756988;83;21037;-85
2023/01/04 15:46:59;;;;;;;5.72;4.58;;;;;;;8.31;95.49;100107.05;2798826;83;21064;-84
2023/01/04 15:51:08;;;;;;;13.15;7.22;;;;;;;8.31;95.22;100095.13;2800866;83;21023;-85
2023/01/04 15:55:09;;;;;;;4.67;4.22;;;;;;;8.36;94.90;100080.21;2893478;80;21570;-85
2023/01/04 15:59:12;;;;;;;4.35;3.47;;;;;;;8.42;95.65;100085.86;2890391;80;21128;-85
2023/01/04 16:03:13;;;;;;;3.47;2.77;;;;;;;8.47;97.53;100080.72;2867096;80;21022;-85
2023/01/04 16:07:14;;;;;;;3.87;3.22;;;;;;;8.51;97.56;100067.12;2883771;80;21088;-85
2023/01/04 16:11:22;;;;;;;2.85;2.67;;;;;;;8.56;97.86;100070.28;2889909;80;20980;-85
2023/01/04 16:15:23;;;;;;;3.15;2.90;;;;;;;8.67;97.68;100068.13;2887419;80;21554;-85
2023/01/04 16:19:24;;;;;;;5.65;3.60;;;;;;;8.73;97.55;100055.34;2899994;80;21007;-86
2023/01/04 16:23:26;;;;;;;8.55;5.65;;;;;;;8.76;97.45;100049.80;2810937;82;21082;-85
2023/01/04 16:27:27;;;;;;;12.73;7.30;;;;;;;8.84;97.31;100047.37;2824484;82;21047;-85
2023/01/04 16:31:37;;;;;;;5.28;4.35;;;;;;;8.92;96.54;100042.80;2808903;82;21091;-85
2023/01/04 16:35:38;;;;;;;12.58;7.30;;;;;;;9.02;96.13;100032.30;2745152;84;21055;-85
2023/01/04 16:39:39;;;;;;;15.88;9.53;;;;;;;9.13;94.95;100024.34;2814409;82;21031;-84
2023/01/04 16:43:53;;;;;;;11.63;8.80;;;;;;;9.17;93.95;100020.47;2718054;84;21075;-84
2023/01/04 16:47:55;;;;;;;9.00;5.97;;;;;;;9.20;93.45;100014.91;2790373;84;21062;-85
2023/01/04 16:51:56;;;;;;;5.37;3.20;;;;;;;9.27;93.87;100009.48;2804195;82;20994;-85
2023/01/04 16:56:05;;;;;;;2.80;2.60;;;;;;;9.28;94.41;100023.58;2778476;83;21056;-85
2023/01/04 17:00:07;;;;;;;6.80;4.10;;;;;;;9.31;95.35;100015.36;2768802;85;21089;-85
2023/01/04 17:04:09;;;;;;;5.35;4.20;;;;;;;9.42;95.33;100013.16;2834251;82;21617;-85
2023/01/04 17:08:10;;;;;;;5.20;3.22;;;;;;;9.46;96.17;100004.47;2822786;83;21545;-85
2023/01/04 17:12:11;;;;;;;2.25;2.08;;;;;;;9.55;95.65;99989.12;2825702;83;21596;-85
2023/01/04 17:16:14;;;;;;;2.67;2.15;;;;;;;9.65;94.21;99985.23;2823711;84;21070;-85
2023/01/04 17:20:15;;;;;;;3.67;2.27;;;;;;;9.77;93.25;99979.38;2815426;83;21022;-85
2023/01/04 17:24:17;;;;;;;4.00;2.08;;;;;;;9.86;93.10;99968.83;2802026;83;21514;-85
2023/01/04 17:28:19;;;;;;;3.15;2.15;;;;;;;9.94;92.73;99968.66;2658626;85;21049;-85
2023/01/04 17:32:20;;;;;;;3.83;2.72;;;;;;;9.95;92.41;99965.02;2812906;83;20988;-85
2023/01/04 17:36:22;;;;;;;3.72;2.72;;;;;;;10.01;92.30;99968.48;2823916;82;21014;-85
2023/01/04 17:40:23;;;;;;;4.25;3.30;;;;;;;10.01;92.66;99957.84;2824024;83;20995;-86
2023/01/04 17:44:24;;;;;;;4.62;3.22;;;;;;;10.06;92.51;99950.82;2799096;84;21543;-85
2023/01/04 17:48:25;;;;;;;6.03;3.60;;;;;;;10.05;92.32;99945.16;2819677;84;21665;-85
2023/01/04 17:52:26;;;;;;;3.87;2.17;;;;;;;10.11;92.22;99926.88;2815610;82;20983;-85
2023/01/04 17:56:29;;;;;;;2.60;2.40;;;;;;;10.15;92.14;99924.80;2761527;81;21061;-85
2023/01/04 18:00:30;;;;;;;3.92;2.42;;;;;;;10.18;92.13;99913.91;2752002;82;21695;-85
2023/01/04 18:04:31;;;;;;;3.25;2.25;;;;;;;10.25;91.90;99917.70;2807862;83;21629;-85
2023/01/04 18:08:32;;;;;;;2.50;2.08;;;;;;;10.26;92.30;99913.24;2788182;84;21079;-85
2023/01/04 18:12:33;;;;;;;3.45;2.30;;;;;;;10.28;92.49;99904.14;2841581;82;21006;-85
2023/01/04 18:16:54;;;;;;;5.62;1.72;;;;;;;10.31;92.34;99900.38;2835645;81;21014;-85
2023/01/04 18:20:38;;;;;;;4.03;2.10;;;;;;;10.34;91.74;99888.66;2811186;83;21062;-85
2023/01/04 18:24:39;;;;;;;2.10;1.90;;;;;;;10.33;92.29;99893.11;2851193;82;21094;-85
2023/01/04 18:28:40;;;;;;;1.67;1.47;;;;;;;10.36;93.97;99888.85;2828899;81;21057;-85
2023/01/04 18:32:41;;;;;;;2.35;1.62;;;;;;;10.32;94.26;99893.23;2835600;82;20997;-85
2023/01/04 18:36:42;;;;;;;2.58;1.70;;;;;;;10.28;93.79;99879.39;2842657;82;20979;-84
2023/01/04 18:40:43;;;;;;;1.77;1.67;;;;;;;10.27;94.03;99879.03;2850586;81;20959;-83
2023/01/04 18:44:45;;;;;;;6.67;1.37;;;;;;;10.32;94.35;99877.28;2854146;81;21521;-84
2023/01/04 18:48:57;;;;;;;1.77;1.27;;;;;;;10.31;94.51;99872.47;2799366;83;21106;-84
2023/01/04 18:52:59;;;;;;;2.15;1.67;;;;;;;10.35;94.33;99869.89;2772278;83;21158;-84
2023/01/04 18:57:00;;;;;;;2.85;1.45;;;;;;;10.41;94.23;99857.41;2807716;83;21065;-84
2023/01/04 19:01:08;;;;;;;3.33;0.90;;;;;;;10.43;94.07;99852.83;2850255;83;21041;-84
2023/01/04 19:05:11;;;;;;;1.42;1.12;;;;;;;10.41;94.33;99845.44;2864950;80;20962;-85
2023/01/04 19:09:12;;;;;;;2.72;1.50;;;;;;;10.46;94.60;99853.02;2768176;82;22096;-85
2023/01/04 19:13:13;;;;;;;1.15;0.85;;;;;;;10.49;94.20;99838.63;2836589;82;21006;-85
2023/01/04 19:17:15;;;;;;;1.22;1.02;;;;;;;10.56;93.94;99834.43;2847372;81;21498;-84
2023/01/04 19:21:17;;;;;;;2.22;0.75;;;;;;;10.59;93.64;99831.49;2839990;82;21042;-85
2023/01/04 19:25:18;;;;;;;1.82;0.60;;;;;;;10.59;93.50;99822.19;2835869;82;20991;-85
2023/01/04 19:29:20;;;;;;;2.22;0.82;;;;;;;10.57;93.38;99822.34;2821573;83;21106;-85
2023/01/04 19:33:21;;;;;;;2.52;0.90;;;;;;;10.52;92.88;99816.59;2854448;81;21033;-85
2023/01/04 19:37:22;;;;;;;0.70;0.70;;;;;;;10.48;92.89;99806.36;2861475;81;21034;-84
2023/01/04 19:41:26;;;;;;;1.25;0.65;;;;;;;10.48;92.80;99811.17;2865284;82;21381;-84
2023/01/04 19:45:27;;;;;;;0.93;0.50;;;;;;;10.37;92.65;99800.14;2853650;83;21593;-84
2023/01/04 19:49:28;;;;;;;0.40;0.40;;;;;;;10.39;92.32;99807.48;2776740;82;21534;-84
2023/01/04 19:53:29;;;;;;;0.33;0.30;;;;;;;10.37;91.92;99805.45;2775577;83;20971;-84
2023/01/04 19:57:31;;;;;;;0.95;0.40;;;;;;;10.36;92.19;99812.26;2864487;81;21098;-85
2023/01/04 20:01:32;;;;;;;1.02;0.62;;;;;;;10.33;92.45;99804.56;2793830;82;20988;-84
2023/01/04 20:05:33;;;;;;;2.58;0.70;;;;;;;10.33;92.72;99797.41;2816513;82;21044;-85